Time;durP1;ratioP1;P1;durP2;ratioP2;P2;SDS_P1;SDS_P2;PMS_P1;PMS_P2;Temp;Humidity;BMP_temperature;BMP_pressure;BME280_temperature;BME280_humidity;BME280_pressure;Samples;Min_cycle;Max_cycle;Signal;HPM_P1;HPM_P2
2023/08/15 00:00:42;;;;;;;8.55;6.53;;;;;;;;;;5054037;28;20087;-64
2023/08/15 00:03:08;;;;;;;7.07;6.47;;;;;;;;;;5053982;28;20025;-64
2023/08/15 00:05:35;;;;;;;8.30;6.57;;;;;;;;;;5053953;28;20379;-64
2023/08/15 00:08:00;;;;;;;7.45;6.22;;;;;;;;;;5053944;28;20356;-64
2023/08/15 00:10:26;;;;;;;8.00;6.07;;;;;;;;;;5053870;28;20031;-64
2023/08/15 00:12:51;;;;;;;6.28;5.68;;;;;;;;;;5036918;28;20451;-64
2023/08/15 00:15:17;;;;;;;6.30;5.75;;;;;;;;;;5053833;28;20021;-64
2023/08/15 00:17:43;;;;;;;6.03;5.60;;;;;;;;;;5053979;28;20068;-64
2023/08/15 00:20:09;;;;;;;10.25;6.25;;;;;;;;;;5053788;28;20035;-64
2023/08/15 00:22:34;;;;;;;6.68;6.22;;;;;;;;;;5053974;28;20044;-64
2023/08/15 00:24:59;;;;;;;10.23;6.32;;;;;;;;;;5053990;28;20025;-64
2023/08/15 00:27:24;;;;;;;6.45;5.63;;;;;;;;;;5035843;28;20040;-64
2023/08/15 00:29:51;;;;;;;6.57;6.03;;;;;;;;;;5053634;28;20378;-64
2023/08/15 00:32:16;;;;;;;7.03;6.43;;;;;;;;;;5035571;28;20124;-64
2023/08/15 00:34:42;;;;;;;6.78;6.10;;;;;;;;;;5035751;28;20095;-64
2023/08/15 00:37:08;;;;;;;7.90;6.32;;;;;;;;;;5053514;28;20041;-64
2023/08/15 00:39:33;;;;;;;7.43;6.72;;;;;;;;;;5052221;28;20127;-64
2023/08/15 00:41:59;;;;;;;6.93;6.43;;;;;;;;;;5035690;28;20112;-64
2023/08/15 00:44:25;;;;;;;7.50;6.55;;;;;;;;;;5019287;28;20053;-64
2023/08/15 00:46:50;;;;;;;6.68;6.18;;;;;;;;;;5035611;28;20032;-64
2023/08/15 00:49:16;;;;;;;7.00;6.50;;;;;;;;;;5035607;28;20029;-64
2023/08/15 00:51:42;;;;;;;7.25;6.55;;;;;;;;;;5035536;28;20033;-64
2023/08/15 00:54:07;;;;;;;8.07;7.05;;;;;;;;;;5054681;28;20146;-64
2023/08/15 00:56:33;;;;;;;6.95;6.25;;;;;;;;;;5039527;28;20029;-64
2023/08/15 00:58:59;;;;;;;6.90;6.30;;;;;;;;;;5057744;28;20025;-64
2023/08/15 01:01:24;;;;;;;8.90;6.43;;;;;;;;;;5057408;28;20374;-64
2023/08/15 01:03:51;;;;;;;7.43;6.35;;;;;;;;;;5057667;28;20163;-64
2023/08/15 01:06:16;;;;;;;8.25;6.70;;;;;;;;;;5057576;28;20033;-64
2023/08/15 01:08:42;;;;;;;7.07;6.40;;;;;;;;;;5039353;28;20037;-64
2023/08/15 01:11:07;;;;;;;7.75;6.28;;;;;;;;;;5039311;28;20025;-64
2023/08/15 01:13:32;;;;;;;6.03;5.55;;;;;;;;;;5057195;28;20104;-64
2023/08/15 01:15:58;;;;;;;6.25;5.75;;;;;;;;;;5022684;28;20033;-64
2023/08/15 01:18:24;;;;;;;6.63;6.03;;;;;;;;;;5055919;28;20029;-64
2023/08/15 01:20:49;;;;;;;7.22;6.60;;;;;;;;;;5057019;28;20039;-64
2023/08/15 01:23:15;;;;;;;7.13;6.53;;;;;;;;;;5039369;28;20033;-64
2023/08/15 01:25:42;;;;;;;6.80;6.13;;;;;;;;;;5057197;28;20108;-64
2023/08/15 01:28:10;;;;;;;6.32;5.78;;;;;;;;;;5056699;28;20107;-64
2023/08/15 01:30:36;;;;;;;6.93;5.68;;;;;;;;;;5039021;28;20075;-64
2023/08/15 01:33:15;;;;;;;8.18;5.53;;;;;;;;;;5056915;28;20045;-64
2023/08/15 01:35:46;;;;;;;6.15;5.60;;;;;;;;;;5039198;28;20427;-64
2023/08/15 01:38:30;;;;;;;5.75;5.15;;;;;;;;;;5056718;28;20459;-64
2023/08/15 01:40:56;;;;;;;5.43;5.13;;;;;;;;;;5038888;28;20471;-64
2023/08/15 01:43:22;;;;;;;6.20;5.70;;;;;;;;;;5055388;28;20048;-64
2023/08/15 01:45:48;;;;;;;7.07;5.63;;;;;;;;;;5056588;28;20364;-64
2023/08/15 01:48:13;;;;;;;6.38;5.78;;;;;;;;;;5038678;28;20365;-64
2023/08/15 01:50:40;;;;;;;6.05;5.45;;;;;;;;;;5038596;28;20076;-64
2023/08/15 01:53:05;;;;;;;6.95;5.63;;;;;;;;;;5056453;28;20455;-64
2023/08/15 01:55:30;;;;;;;7.60;5.80;;;;;;;;;;5056693;28;20025;-64
2023/08/15 01:57:55;;;;;;;5.75;5.28;;;;;;;;;;5038394;28;20037;-64
2023/08/15 02:00:21;;;;;;;5.60;4.95;;;;;;;;;;5038417;28;20021;-64
2023/08/15 02:02:47;;;;;;;5.82;5.43;;;;;;;;;;5056309;28;20033;-64
2023/08/15 02:05:13;;;;;;;5.97;5.38;;;;;;;;;;5021539;28;20378;-64
2023/08/15 02:07:39;;;;;;;5.85;5.38;;;;;;;;;;5056184;28;20486;-64
2023/08/15 02:10:05;;;;;;;5.90;5.40;;;;;;;;;;5038287;28;20075;-64
2023/08/15 02:12:30;;;;;;;5.53;5.13;;;;;;;;;;5056384;28;20108;-64
2023/08/15 02:14:57;;;;;;;6.28;5.78;;;;;;;;;;5056092;28;20033;-64
2023/08/15 02:17:22;;;;;;;6.13;5.63;;;;;;;;;;5056486;28;20119;-64
2023/08/15 02:19:47;;;;;;;15.20;6.00;;;;;;;;;;5038091;28;20032;-64
2023/08/15 02:22:15;;;;;;;5.88;5.30;;;;;;;;;;5055927;28;20021;-64
2023/08/15 02:24:40;;;;;;;6.90;6.30;;;;;;;;;;5055881;28;20036;-64
2023/08/15 02:27:06;;;;;;;6.05;5.65;;;;;;;;;;5056137;28;20032;-64
2023/08/15 02:29:31;;;;;;;5.75;5.35;;;;;;;;;;5054474;28;20475;-64
2023/08/15 02:31:57;;;;;;;6.18;5.53;;;;;;;;;;5055566;28;20036;-64
2023/08/15 02:34:24;;;;;;;6.60;6.00;;;;;;;;;;5055679;28;20228;-64
2023/08/15 02:36:49;;;;;;;6.32;5.82;;;;;;;;;;5055827;28;20120;-64
2023/08/15 02:39:16;;;;;;;6.93;6.22;;;;;;;;;;5055892;28;20078;-64
2023/08/15 02:41:41;;;;;;;8.15;6.15;;;;;;;;;;5037653;28;20102;-64
2023/08/15 02:44:07;;;;;;;6.82;6.03;;;;;;;;;;5055750;28;20068;-64
2023/08/15 02:46:33;;;;;;;8.40;6.80;;;;;;;;;;5037570;28;20115;-64
2023/08/15 02:48:58;;;;;;;7.35;6.40;;;;;;;;;;5055968;28;20025;-64
2023/08/15 02:51:23;;;;;;;8.55;6.32;;;;;;;;;;5055360;28;20087;-64
2023/08/15 02:53:49;;;;;;;6.18;5.63;;;;;;;;;;5055869;28;20033;-64
2023/08/15 02:56:14;;;;;;;6.60;6.00;;;;;;;;;;5055497;28;20068;-64
2023/08/15 02:58:40;;;;;;;6.72;6.03;;;;;;;;;;5055239;28;20364;-64
2023/08/15 03:01:05;;;;;;;6.63;6.03;;;;;;;;;;5037309;28;20395;-64
2023/08/15 03:03:30;;;;;;;6.82;6.22;;;;;;;;;;5053862;28;20056;-64
2023/08/15 03:05:56;;;;;;;6.22;5.70;;;;;;;;;;5070503;22;20067;-58
2023/08/15 03:08:28;;;;;;;6.90;6.03;;;;;;;;;;5057789;22;20043;-58
2023/08/15 03:10:53;;;;;;;7.15;6.45;;;;;;;;;;5044220;23;20492;-64
2023/08/15 03:13:19;;;;;;;6.50;5.90;;;;;;;;;;5034988;28;20025;-64
2023/08/15 03:15:52;;;;;;;6.75;6.07;;;;;;;;;;5017048;28;20022;-64
2023/08/15 03:18:18;;;;;;;6.28;5.72;;;;;;;;;;5034251;28;20018;-64
2023/08/15 03:20:43;;;;;;;6.43;5.93;;;;;;;;;;5035125;28;20049;-64
2023/08/15 03:23:11;;;;;;;9.20;6.10;;;;;;;;;;5017061;28;20514;-64
2023/08/15 03:25:36;;;;;;;8.38;6.15;;;;;;;;;;5016891;28;20033;-64
2023/08/15 03:28:02;;;;;;;6.55;5.95;;;;;;;;;;5034711;28;20037;-64
2023/08/15 03:30:28;;;;;;;6.03;5.47;;;;;;;;;;5017066;28;20052;-64
2023/08/15 03:32:55;;;;;;;6.38;5.78;;;;;;;;;;5017282;28;20026;-64
2023/08/15 03:35:20;;;;;;;6.32;5.72;;;;;;;;;;5016816;28;20032;-64
2023/08/15 03:37:46;;;;;;;5.88;5.32;;;;;;;;;;5016733;28;20025;-64
2023/08/15 03:40:11;;;;;;;5.93;5.50;;;;;;;;;;5034516;28;20041;-64
2023/08/15 03:42:37;;;;;;;7.75;5.57;;;;;;;;;;5016721;28;20021;-64
2023/08/15 03:45:04;;;;;;;6.45;5.85;;;;;;;;;;5016680;28;20048;-64
2023/08/15 03:47:30;;;;;;;7.18;6.05;;;;;;;;;;5034629;28;20459;-64
2023/08/15 03:49:59;;;;;;;8.63;6.07;;;;;;;;;;5016637;28;20029;-64
2023/08/15 03:52:24;;;;;;;6.47;5.78;;;;;;;;;;5034302;28;20500;-64
2023/08/15 03:54:49;;;;;;;6.82;5.95;;;;;;;;;;5016529;28;20053;-64
2023/08/15 03:57:15;;;;;;;7.03;5.72;;;;;;;;;;5016434;28;20471;-64
2023/08/15 03:59:41;;;;;;;8.45;6.18;;;;;;;;;;5016519;28;20104;-64
2023/08/15 04:02:06;;;;;;;8.10;6.15;;;;;;;;;;5016413;28;20377;-64
2023/08/15 04:04:32;;;;;;;8.60;6.90;;;;;;;;;;5034669;28;20033;-64
2023/08/15 04:06:57;;;;;;;8.10;6.28;;;;;;;;;;5016273;28;20087;-64
2023/08/15 04:09:22;;;;;;;8.27;6.22;;;;;;;;;;5034018;28;20033;-64
2023/08/15 04:11:48;;;;;;;9.25;6.68;;;;;;;;;;5033839;28;20104;-64
2023/08/15 04:14:13;;;;;;;6.68;6.05;;;;;;;;;;5016218;28;20033;-64
2023/08/15 04:16:39;;;;;;;7.32;6.35;;;;;;;;;;5016148;28;20156;-64
2023/08/15 04:19:04;;;;;;;7.40;5.80;;;;;;;;;;5016183;28;20030;-64
2023/08/15 04:21:29;;;;;;;9.73;6.70;;;;;;;;;;5016432;28;20511;-63
2023/08/15 04:23:55;;;;;;;8.40;6.05;;;;;;;;;;5033819;28;20033;-64
2023/08/15 04:26:20;;;;;;;6.70;5.95;;;;;;;;;;5016089;28;20033;-64
2023/08/15 04:28:46;;;;;;;8.32;6.13;;;;;;;;;;5015949;28;20498;-64
2023/08/15 04:31:12;;;;;;;6.75;5.55;;;;;;;;;;5016044;28;20037;-64
2023/08/15 04:33:37;;;;;;;6.82;5.75;;;;;;;;;;5016006;28;20030;-64
2023/08/15 04:36:02;;;;;;;7.03;5.55;;;;;;;;;;5033608;28;20025;-64
2023/08/15 04:38:28;;;;;;;7.60;5.72;;;;;;;;;;5015920;28;20028;-64
2023/08/15 04:40:54;;;;;;;7.18;5.57;;;;;;;;;;5015881;28;20112;-64
2023/08/15 04:43:19;;;;;;;6.90;5.88;;;;;;;;;;5033863;28;20095;-64
2023/08/15 04:45:45;;;;;;;8.30;5.60;;;;;;;;;;5015840;28;20121;-64
2023/08/15 04:48:10;;;;;;;6.18;5.57;;;;;;;;;;5034117;28;20017;-64
2023/08/15 04:50:36;;;;;;;7.70;5.60;;;;;;;;;;5015768;28;20028;-64
2023/08/15 04:53:03;;;;;;;7.38;6.15;;;;;;;;;;5015821;28;20104;-64
2023/08/15 04:55:29;;;;;;;6.43;5.82;;;;;;;;;;5016217;28;20033;-64
2023/08/15 04:57:54;;;;;;;6.88;6.10;;;;;;;;;;5015700;28;20432;-64
2023/08/15 05:00:20;;;;;;;6.70;6.20;;;;;;;;;;5033436;28;20556;-64
2023/08/15 05:02:46;;;;;;;7.47;6.18;;;;;;;;;;5015691;28;20030;-64
2023/08/15 05:05:11;;;;;;;8.55;6.15;;;;;;;;;;5033405;28;20057;-64
2023/08/15 05:07:38;;;;;;;6.75;6.07;;;;;;;;;;4999685;28;20060;-64
2023/08/15 05:10:04;;;;;;;11.82;6.53;;;;;;;;;;5020703;28;20108;-64
2023/08/15 05:12:29;;;;;;;8.00;6.43;;;;;;;;;;5035976;28;20032;-64
2023/08/15 05:14:55;;;;;;;7.72;6.35;;;;;;;;;;5053190;28;20029;-64
2023/08/15 05:17:20;;;;;;;6.97;6.28;;;;;;;;;;5035303;28;20090;-64
2023/08/15 05:19:45;;;;;;;8.38;6.65;;;;;;;;;;5035279;28;20060;-64
2023/08/15 05:22:11;;;;;;;6.80;6.10;;;;;;;;;;5053690;28;20018;-64
2023/08/15 05:24:36;;;;;;;6.95;6.25;;;;;;;;;;5053116;28;20036;-64
2023/08/15 05:27:01;;;;;;;7.15;6.28;;;;;;;;;;5035250;28;20025;-64
2023/08/15 05:29:27;;;;;;;7.32;6.20;;;;;;;;;;5035253;28;20025;-64
2023/08/15 05:31:52;;;;;;;8.18;6.32;;;;;;;;;;5053341;28;20021;-64
2023/08/15 05:34:18;;;;;;;7.07;6.38;;;;;;;;;;5052995;28;20033;-64
2023/08/15 05:36:44;;;;;;;10.32;6.80;;;;;;;;;;5052950;28;20371;-64
2023/08/15 05:39:09;;;;;;;9.85;6.60;;;;;;;;;;5035403;28;20518;-64
2023/08/15 05:41:34;;;;;;;7.18;6.22;;;;;;;;;;5038450;28;20391;-64
2023/08/15 05:44:00;;;;;;;8.50;6.70;;;;;;;;;;5038829;28;20116;-64
2023/08/15 05:46:25;;;;;;;8.52;6.57;;;;;;;;;;5022220;28;20059;-64
2023/08/15 05:48:50;;;;;;;8.90;6.53;;;;;;;;;;5056561;28;20037;-64
2023/08/15 05:51:16;;;;;;;6.20;5.70;;;;;;;;;;5056803;28;20037;-64
2023/08/15 05:53:41;;;;;;;13.57;6.18;;;;;;;;;;5056504;28;20124;-64
2023/08/15 05:56:06;;;;;;;6.25;5.43;;;;;;;;;;5056624;28;20033;-64
2023/08/15 05:58:32;;;;;;;6.82;5.00;;;;;;;;;;5056678;28;20036;-64
2023/08/15 06:00:57;;;;;;;6.28;5.25;;;;;;;;;;5056357;28;20028;-64
2023/08/15 06:03:22;;;;;;;7.55;5.80;;;;;;;;;;5056260;28;20402;-64
2023/08/15 06:05:48;;;;;;;6.53;5.93;;;;;;;;;;5056207;28;20478;-64
2023/08/15 06:08:13;;;;;;;6.00;5.32;;;;;;;;;;5056478;28;20053;-64
2023/08/15 06:10:38;;;;;;;7.43;5.82;;;;;;;;;;5038091;28;20052;-64
2023/08/15 06:13:04;;;;;;;6.57;5.40;;;;;;;;;;5056075;28;20021;-64
2023/08/15 06:15:29;;;;;;;8.10;5.10;;;;;;;;;;5056057;28;20410;-64
2023/08/15 06:17:54;;;;;;;8.30;5.20;;;;;;;;;;5056193;28;20033;-64
2023/08/15 06:20:20;;;;;;;9.27;5.72;;;;;;;;;;5038125;28;20025;-64
2023/08/15 06:22:45;;;;;;;13.60;6.20;;;;;;;;;;5055919;28;20017;-64
2023/08/15 06:25:11;;;;;;;9.80;5.57;;;;;;;;;;5055838;28;20032;-64
2023/08/15 06:27:36;;;;;;;9.70;5.60;;;;;;;;;;5056088;28;20029;-64
2023/08/15 06:30:01;;;;;;;8.70;6.13;;;;;;;;;;5055775;28;20428;-64
2023/08/15 06:32:27;;;;;;;6.55;4.88;;;;;;;;;;5055981;28;20044;-64
2023/08/15 06:34:53;;;;;;;7.88;5.80;;;;;;;;;;5055706;28;20033;-64
2023/08/15 06:37:18;;;;;;;9.30;6.25;;;;;;;;;;5056115;28;20029;-64
2023/08/15 06:39:43;;;;;;;6.47;4.97;;;;;;;;;;5037885;28;20395;-64
2023/08/15 06:42:10;;;;;;;5.22;4.15;;;;;;;;;;5037759;28;20467;-64
2023/08/15 06:44:36;;;;;;;6.35;4.03;;;;;;;;;;5037617;28;20032;-64
2023/08/15 06:47:01;;;;;;;4.28;3.90;;;;;;;;;;5055719;28;20084;-64
2023/08/15 06:49:26;;;;;;;5.40;4.20;;;;;;;;;;5055379;28;20084;-64
2023/08/15 06:51:52;;;;;;;4.07;3.78;;;;;;;;;;5054187;28;20390;-64
2023/08/15 06:54:17;;;;;;;4.05;3.75;;;;;;;;;;5055334;28;20033;-64
2023/08/15 06:56:42;;;;;;;5.55;4.15;;;;;;;;;;5055488;28;20166;-64
2023/08/15 06:59:07;;;;;;;4.55;4.25;;;;;;;;;;5055274;28;20439;-64
2023/08/15 07:01:33;;;;;;;5.88;4.55;;;;;;;;;;5055188;28;20079;-64
2023/08/15 07:03:59;;;;;;;4.78;4.38;;;;;;;;;;5055115;28;20498;-64
2023/08/15 07:06:25;;;;;;;4.93;4.55;;;;;;;;;;5055075;28;20498;-64
2023/08/15 07:08:50;;;;;;;5.07;4.57;;;;;;;;;;5055326;28;20029;-64
2023/08/15 07:11:15;;;;;;;8.20;4.35;;;;;;;;;;5054914;28;20112;-64
2023/08/15 07:13:40;;;;;;;5.18;4.68;;;;;;;;;;5054961;28;20063;-64
2023/08/15 07:16:06;;;;;;;4.43;4.03;;;;;;;;;;5054793;28;20528;-64
2023/08/15 07:18:31;;;;;;;4.68;4.05;;;;;;;;;;5054819;28;20542;-64
2023/08/15 07:20:57;;;;;;;4.10;3.80;;;;;;;;;;5054822;28;20025;-64
2023/08/15 07:23:22;;;;;;;6.75;4.13;;;;;;;;;;5054761;28;20025;-64
2023/08/15 07:25:48;;;;;;;4.70;4.35;;;;;;;;;;5054678;28;20478;-64
2023/08/15 07:28:13;;;;;;;4.70;3.88;;;;;;;;;;5054954;28;20052;-64
2023/08/15 07:30:38;;;;;;;4.97;3.85;;;;;;;;;;5054372;28;20514;-64
2023/08/15 07:33:05;;;;;;;4.38;4.07;;;;;;;;;;5054568;28;20033;-64
2023/08/15 07:35:30;;;;;;;4.78;4.32;;;;;;;;;;5037039;28;20025;-64
2023/08/15 07:37:56;;;;;;;4.85;3.38;;;;;;;;;;5054701;28;20363;-64
2023/08/15 07:40:21;;;;;;;5.45;3.88;;;;;;;;;;5054758;28;20090;-64
2023/08/15 07:43:19;;;;;;;4.60;3.45;;;;;;;;;;5075494;23;20164;-64
2023/08/15 07:45:44;;;;;;;4.18;3.80;;;;;;;;;;5056470;23;20151;-63
2023/08/15 07:48:09;;;;;;;4.00;3.67;;;;;;;;;;5081527;23;20123;-58
2023/08/15 07:50:35;;;;;;;3.78;3.47;;;;;;;;;;5054195;28;20021;-58
2023/08/15 07:53:01;;;;;;;4.78;3.55;;;;;;;;;;5054210;28;20040;-58
2023/08/15 07:55:27;;;;;;;4.63;3.60;;;;;;;;;;5054082;28;20017;-58
2023/08/15 07:57:52;;;;;;;4.35;4.03;;;;;;;;;;5036848;28;20426;-58
2023/08/15 08:00:18;;;;;;;3.72;3.42;;;;;;;;;;5054074;28;20090;-58
2023/08/15 08:02:44;;;;;;;3.38;2.67;;;;;;;;;;5053541;28;20025;-58
2023/08/15 08:05:09;;;;;;;4.38;3.28;;;;;;;;;;5036283;28;20421;-58
2023/08/15 08:07:35;;;;;;;3.33;2.83;;;;;;;;;;5029395;23;1105759;-58
2023/08/15 08:10:00;;;;;;;4.75;2.85;;;;;;;;;;5067366;23;20064;-64
2023/08/15 08:12:27;;;;;;;4.75;2.70;;;;;;;;;;5080770;23;20057;-63
2023/08/15 08:14:52;;;;;;;3.90;3.15;;;;;;;;;;5036073;28;20040;-58
2023/08/15 08:17:21;;;;;;;3.05;2.75;;;;;;;;;;5073699;23;20053;-59
2023/08/15 08:19:47;;;;;;;5.03;2.80;;;;;;;;;;5066206;23;20057;-62
2023/08/15 08:22:12;;;;;;;3.03;2.78;;;;;;;;;;5075312;23;20114;-64
2023/08/15 08:24:37;;;;;;;3.72;2.72;;;;;;;;;;5066900;23;20161;-58
2023/08/15 08:30:33;;;;;;;3.27;2.90;;;;;;;;;;5068739;23;20053;-58
2023/08/15 08:32:58;;;;;;;2.83;2.63;;;;;;;;;;5081838;22;20068;-58
2023/08/15 08:35:23;;;;;;;3.08;2.88;;;;;;;;;;5063190;23;20139;-63
2023/08/15 08:37:49;;;;;;;3.20;2.92;;;;;;;;;;5053488;28;20112;-64
2023/08/15 08:40:15;;;;;;;4.28;3.20;;;;;;;;;;5053574;28;20167;-63
2023/08/15 08:42:41;;;;;;;3.25;3.05;;;;;;;;;;5053473;28;20033;-63
2023/08/15 08:45:08;;;;;;;3.15;2.95;;;;;;;;;;5035782;28;20029;-63
2023/08/15 08:47:34;;;;;;;4.15;3.20;;;;;;;;;;5035657;28;20063;-64
2023/08/15 08:49:59;;;;;;;2.85;2.58;;;;;;;;;;5035426;28;20496;-64
2023/08/15 08:52:26;;;;;;;3.47;3.20;;;;;;;;;;5053985;28;20033;-64
2023/08/15 08:54:51;;;;;;;3.05;2.85;;;;;;;;;;5053377;28;20044;-64
2023/08/15 08:57:18;;;;;;;3.15;2.75;;;;;;;;;;5053620;28;20021;-64
2023/08/15 08:59:43;;;;;;;2.83;2.63;;;;;;;;;;5035532;28;20065;-64
2023/08/15 09:02:11;;;;;;;3.25;2.72;;;;;;;;;;5053350;28;20041;-63
2023/08/15 09:04:36;;;;;;;3.50;3.20;;;;;;;;;;5053352;28;20021;-63
2023/08/15 09:07:02;;;;;;;3.88;2.55;;;;;;;;;;5053578;28;20029;-63
2023/08/15 09:09:27;;;;;;;3.00;2.80;;;;;;;;;;5035383;28;20040;-63
2023/08/15 09:11:52;;;;;;;3.60;2.47;;;;;;;;;;5035486;28;20032;-63
2023/08/15 09:14:18;;;;;;;2.88;2.67;;;;;;;;;;5053538;28;20032;-63
2023/08/15 09:16:47;;;;;;;2.58;2.47;;;;;;;;;;5039192;28;20086;-64
2023/08/15 09:19:13;;;;;;;3.33;3.08;;;;;;;;;;5057124;28;20032;-64
2023/08/15 09:21:39;;;;;;;2.80;2.70;;;;;;;;;;5057665;28;20035;-64
2023/08/15 09:24:04;;;;;;;2.92;2.67;;;;;;;;;;5057065;28;20407;-64
2023/08/15 09:26:33;;;;;;;3.00;2.70;;;;;;;;;;5056995;28;20033;-64
2023/08/15 09:28:58;;;;;;;3.03;2.83;;;;;;;;;;5039136;28;20039;-64
2023/08/15 09:31:24;;;;;;;2.63;2.53;;;;;;;;;;5057237;28;20107;-64
2023/08/15 09:33:49;;;;;;;3.35;2.67;;;;;;;;;;5056887;28;20377;-64
2023/08/15 09:36:15;;;;;;;2.85;2.65;;;;;;;;;;5056634;28;20095;-64
2023/08/15 09:38:40;;;;;;;3.92;2.58;;;;;;;;;;5057074;28;20021;-64
2023/08/15 09:41:06;;;;;;;2.55;2.45;;;;;;;;;;5056773;28;20570;-64
2023/08/15 09:43:32;;;;;;;2.63;2.42;;;;;;;;;;5056720;28;20104;-64
2023/08/15 09:45:58;;;;;;;2.70;2.50;;;;;;;;;;5056651;28;20433;-64
2023/08/15 09:48:24;;;;;;;3.45;3.15;;;;;;;;;;5056614;28;20090;-64
2023/08/15 09:50:51;;;;;;;3.35;2.80;;;;;;;;;;5056547;28;20082;-64
2023/08/15 09:53:17;;;;;;;2.22;2.13;;;;;;;;;;5056798;28;20447;-64
2023/08/15 09:55:42;;;;;;;2.78;2.47;;;;;;;;;;5038970;28;20029;-64
2023/08/15 09:58:07;;;;;;;2.97;1.92;;;;;;;;;;5056397;28;20136;-64
2023/08/15 10:00:35;;;;;;;2.30;2.20;;;;;;;;;;5056949;28;20017;-64
2023/08/15 10:03:09;;;;;;;2.53;2.42;;;;;;;;;;5038473;28;20049;-64
2023/08/15 10:05:36;;;;;;;2.47;2.30;;;;;;;;;;5056284;28;20025;-64
2023/08/15 10:08:01;;;;;;;2.70;2.55;;;;;;;;;;5056503;28;20021;-64
2023/08/15 10:10:27;;;;;;;2.45;2.25;;;;;;;;;;5056479;28;20056;-64
2023/08/15 10:12:53;;;;;;;2.55;2.30;;;;;;;;;;5056120;28;20454;-64
2023/08/15 10:15:19;;;;;;;5.03;2.30;;;;;;;;;;5038537;28;20040;-64
2023/08/15 10:17:45;;;;;;;2.65;2.47;;;;;;;;;;5038200;28;20033;-64
2023/08/15 10:20:15;;;;;;;2.72;2.53;;;;;;;;;;5056300;28;20029;-64
2023/08/15 10:22:40;;;;;;;;;;;;;;;;;;5038560;28;20028;-64
2023/08/15 10:25:25;;;;;;;2.50;2.27;;;;;;;;;;5056502;28;19911;-64
2023/08/15 10:27:51;;;;;;;3.28;3.03;;;;;;;;;;5056403;28;20037;-64
2023/08/15 10:30:36;;;;;;;3.05;2.80;;;;;;;;;;5055852;28;20382;-64
2023/08/15 10:33:13;;;;;;;3.10;2.72;;;;;;;;;;5056057;28;20040;-64
2023/08/15 10:35:51;;;;;;;2.67;2.47;;;;;;;;;;5055760;28;20053;-64
2023/08/15 10:38:17;;;;;;;2.63;2.42;;;;;;;;;;5055620;28;20037;-64
2023/08/15 10:40:43;;;;;;;2.50;2.38;;;;;;;;;;5055645;28;20090;-64
2023/08/15 10:43:10;;;;;;;2.60;2.40;;;;;;;;;;5055589;28;20044;-64
2023/08/15 10:45:39;;;;;;;2.78;2.53;;;;;;;;;;5055548;28;20467;-64
2023/08/15 10:48:05;;;;;;;2.83;2.63;;;;;;;;;;5055526;28;20145;-64
2023/08/15 10:50:30;;;;;;;2.58;2.47;;;;;;;;;;5037691;28;20068;-64
2023/08/15 10:53:00;;;;;;;2.90;2.70;;;;;;;;;;5055438;28;20448;-64
2023/08/15 10:55:26;;;;;;;2.95;2.75;;;;;;;;;;5055636;28;20063;-65
2023/08/15 10:57:53;;;;;;;3.08;2.88;;;;;;;;;;5055169;28;20033;-64
2023/08/15 11:00:19;;;;;;;2.65;2.45;;;;;;;;;;5055527;28;20040;-64
2023/08/15 11:02:44;;;;;;;3.13;2.92;;;;;;;;;;5055211;28;20459;-64
2023/08/15 11:05:10;;;;;;;3.42;2.10;;;;;;;;;;5055421;28;20104;-65
2023/08/15 11:07:36;;;;;;;2.55;2.35;;;;;;;;;;5055657;28;20044;-65
2023/08/15 11:10:01;;;;;;;4.53;2.88;;;;;;;;;;5037191;28;20056;-65
2023/08/15 11:12:27;;;;;;;3.53;2.83;;;;;;;;;;5055000;28;20084;-65
2023/08/15 11:14:52;;;;;;;3.80;2.58;;;;;;;;;;5054990;28;20551;-65
2023/08/15 11:17:17;;;;;;;2.80;2.38;;;;;;;;;;5054873;28;20505;-64
2023/08/15 11:19:44;;;;;;;2.63;2.40;;;;;;;;;;5054872;28;20029;-65
2023/08/15 11:22:10;;;;;;;3.20;3.00;;;;;;;;;;5055041;28;20044;-64
2023/08/15 11:24:35;;;;;;;4.07;2.85;;;;;;;;;;5054830;28;20356;-64
2023/08/15 11:27:02;;;;;;;4.70;3.33;;;;;;;;;;5036955;28;20044;-65
2023/08/15 11:29:27;;;;;;;2.90;2.75;;;;;;;;;;5055260;28;20044;-64
2023/08/15 11:31:54;;;;;;;4.72;2.88;;;;;;;;;;5036753;28;20025;-65
2023/08/15 11:34:21;;;;;;;2.88;2.67;;;;;;;;;;5054621;28;20512;-65
2023/08/15 11:36:46;;;;;;;2.60;2.40;;;;;;;;;;5054314;28;20091;-65
2023/08/15 11:39:12;;;;;;;3.80;2.50;;;;;;;;;;5054117;28;20029;-65
2023/08/15 11:41:38;;;;;;;3.53;2.30;;;;;;;;;;5054456;28;20040;-65
2023/08/15 11:44:03;;;;;;;3.10;2.90;;;;;;;;;;5054692;28;20025;-65
2023/08/15 11:46:29;;;;;;;2.03;1.92;;;;;;;;;;5054650;28;20100;-65
2023/08/15 11:48:54;;;;;;;1.95;1.85;;;;;;;;;;5054905;28;20061;-65
2023/08/15 11:51:20;;;;;;;2.58;2.45;;;;;;;;;;5036552;28;20029;-65
2023/08/15 11:53:52;;;;;;;2.72;2.53;;;;;;;;;;5054263;28;20470;-65
2023/08/15 11:56:19;;;;;;;2.58;2.35;;;;;;;;;;5054139;28;20111;-65
2023/08/15 11:58:44;;;;;;;3.30;3.10;;;;;;;;;;5054397;28;20025;-65
2023/08/15 12:01:11;;;;;;;2.90;2.70;;;;;;;;;;5054403;28;20066;-64
2023/08/15 12:03:37;;;;;;;2.63;1.95;;;;;;;;;;5054650;28;20512;-64
2023/08/15 12:06:06;;;;;;;4.03;2.60;;;;;;;;;;5054023;28;20033;-65
2023/08/15 12:08:32;;;;;;;2.60;2.40;;;;;;;;;;5054592;28;20091;-65
2023/08/15 12:11:01;;;;;;;2.70;2.50;;;;;;;;;;5053966;28;20037;-65
2023/08/15 12:13:31;;;;;;;3.10;2.90;;;;;;;;;;5054221;28;20493;-65
2023/08/15 12:15:56;;;;;;;3.50;3.13;;;;;;;;;;5054210;28;20032;-64
2023/08/15 12:18:21;;;;;;;3.30;2.55;;;;;;;;;;5035959;28;20279;-64
2023/08/15 12:20:48;;;;;;;2.85;2.65;;;;;;;;;;5067225;23;20065;-64
2023/08/15 12:23:34;;;;;;;3.17;2.90;;;;;;;;;;5082731;22;20052;-58
2023/08/15 12:25:59;;;;;;;2.70;2.50;;;;;;;;;;5068161;22;20057;-65
2023/08/15 12:28:25;;;;;;;2.58;2.38;;;;;;;;;;5053981;28;20100;-65
2023/08/15 12:30:50;;;;;;;2.63;2.45;;;;;;;;;;5053690;28;20463;-64
2023/08/15 12:33:17;;;;;;;2.63;2.53;;;;;;;;;;5035836;28;20029;-65
2023/08/15 12:35:42;;;;;;;2.55;2.45;;;;;;;;;;5053886;28;20036;-64
2023/08/15 12:38:07;;;;;;;4.35;3.35;;;;;;;;;;5053539;28;20037;-65
2023/08/15 12:40:32;;;;;;;3.42;3.13;;;;;;;;;;5053549;28;20029;-64
2023/08/15 12:42:58;;;;;;;3.90;3.05;;;;;;;;;;5053577;28;20104;-65
2023/08/15 12:45:24;;;;;;;2.72;2.38;;;;;;;;;;5035698;28;20132;-65
2023/08/15 12:47:49;;;;;;;3.50;2.72;;;;;;;;;;5053783;28;20032;-64
2023/08/15 12:50:14;;;;;;;2.60;2.40;;;;;;;;;;5038804;28;20076;-65
2023/08/15 12:52:40;;;;;;;3.75;2.50;;;;;;;;;;5057883;28;20119;-65
2023/08/15 12:55:05;;;;;;;2.80;2.47;;;;;;;;;;5057632;28;20056;-65
2023/08/15 12:57:30;;;;;;;2.88;2.67;;;;;;;;;;5057745;28;20090;-65
2023/08/15 12:59:56;;;;;;;3.00;2.28;;;;;;;;;;5057522;28;20021;-65
2023/08/15 13:02:21;;;;;;;3.05;2.85;;;;;;;;;;5057757;28;20025;-65
2023/08/15 13:04:46;;;;;;;2.38;2.28;;;;;;;;;;5057430;28;20036;-65
2023/08/15 13:07:11;;;;;;;3.35;3.08;;;;;;;;;;5057398;28;20087;-65
2023/08/15 13:09:37;;;;;;;3.10;2.42;;;;;;;;;;5057645;28;20025;-64
2023/08/15 13:12:03;;;;;;;3.75;3.05;;;;;;;;;;5039365;28;20024;-65
2023/08/15 13:14:28;;;;;;;2.97;2.78;;;;;;;;;;5039804;28;20383;-65
2023/08/15 13:16:54;;;;;;;2.83;2.63;;;;;;;;;;5057178;28;20364;-65
2023/08/15 13:19:19;;;;;;;5.18;2.90;;;;;;;;;;5057440;28;20083;-65
2023/08/15 13:21:44;;;;;;;3.22;3.00;;;;;;;;;;5039664;28;20025;-65
2023/08/15 13:24:10;;;;;;;3.15;2.95;;;;;;;;;;5057079;28;20033;-65
2023/08/15 13:26:35;;;;;;;2.85;2.47;;;;;;;;;;5057251;28;20079;-65
2023/08/15 13:29:01;;;;;;;2.47;2.28;;;;;;;;;;5056947;28;20036;-65
2023/08/15 13:31:27;;;;;;;2.50;2.30;;;;;;;;;;5057268;28;20044;-65
2023/08/15 13:33:52;;;;;;;2.40;2.08;;;;;;;;;;5022800;28;20037;-65
2023/08/15 13:36:17;;;;;;;4.28;2.70;;;;;;;;;;5039256;28;20155;-65
2023/08/15 13:38:45;;;;;;;2.72;2.60;;;;;;;;;;5057096;28;20024;-65
2023/08/15 13:41:12;;;;;;;2.95;2.70;;;;;;;;;;5056767;28;20013;-65
2023/08/15 13:43:37;;;;;;;2.97;2.78;;;;;;;;;;5057022;28;20455;-65
2023/08/15 13:46:03;;;;;;;3.67;2.63;;;;;;;;;;5056932;28;20082;-65
2023/08/15 13:48:28;;;;;;;3.08;2.88;;;;;;;;;;5056921;28;20029;-65
2023/08/15 13:50:54;;;;;;;2.40;2.30;;;;;;;;;;5056905;28;20078;-65
2023/08/15 13:53:20;;;;;;;2.90;2.70;;;;;;;;;;5056802;28;20087;-65
2023/08/15 13:55:45;;;;;;;2.25;2.15;;;;;;;;;;5056490;28;20036;-65
2023/08/15 13:58:10;;;;;;;2.63;2.42;;;;;;;;;;5056373;28;20029;-64
2023/08/15 14:00:36;;;;;;;28.17;4.22;;;;;;;;;;5055759;28;20115;-65
2023/08/15 14:03:03;;;;;;;2.78;2.58;;;;;;;;;;5056347;28;20056;-64
2023/08/15 14:05:28;;;;;;;2.58;2.42;;;;;;;;;;5056599;28;20127;-59
2023/08/15 14:07:53;;;;;;;2.42;2.22;;;;;;;;;;5038441;28;20041;-58
2023/08/15 14:10:19;;;;;;;2.60;2.10;;;;;;;;;;5056205;28;20032;-58
2023/08/15 14:12:44;;;;;;;2.83;2.28;;;;;;;;;;5056194;28;20044;-59
2023/08/15 14:15:09;;;;;;;2.70;2.50;;;;;;;;;;5038243;28;20029;-59
2023/08/15 14:17:35;;;;;;;2.38;2.17;;;;;;;;;;5056278;28;20028;-58
2023/08/15 14:20:00;;;;;;;3.20;2.30;;;;;;;;;;5038845;28;20043;-59
2023/08/15 14:22:25;;;;;;;2.70;2.60;;;;;;;;;;5055979;28;20051;-59
2023/08/15 14:24:50;;;;;;;3.70;3.38;;;;;;;;;;5038119;28;20032;-59
2023/08/15 14:27:16;;;;;;;3.30;3.10;;;;;;;;;;5055917;28;20045;-58
2023/08/15 14:29:41;;;;;;;2.95;2.75;;;;;;;;;;5056124;28;20123;-59
2023/08/15 14:32:07;;;;;;;3.10;2.90;;;;;;;;;;5038011;28;20057;-59
2023/08/15 14:34:35;;;;;;;3.60;3.00;;;;;;;;;;5055759;28;20538;-59
2023/08/15 14:37:00;;;;;;;3.42;3.13;;;;;;;;;;5055931;28;20116;-59
2023/08/15 14:39:26;;;;;;;3.00;2.80;;;;;;;;;;5055673;28;20444;-59